METAR Data
IDs: Format: Raw Decoded Include TAF

Data at: 1357 UTC 11 Dec 2018

KMRF 111156Z AUTO 04003KT 10SM 01/00 A3026 RMK AO2 SLP240 T00110000 10022 20000 58009 FZRANO $
KMRF 111056Z AUTO 36004KT 10SM 00/M01 A3027 RMK AO2 SLP239 T00001006 FZRANO TSNO $
KMRF 110856Z AUTO 04003KT 10SM 01/01 A3030 RMK AO2 SLP244 T00110006 58016 FZRANO $
KMRF 110356Z AUTO 00000KT 10SM 02/01 A3034 RMK AO2 SLP270 T00220006 FZRANO TSNO $
KMRF 110256Z AUTO 00000KT 10SM 03/01 A3034 RMK AO2 SLP279 T00280006 51008 $
KMRF 110156Z AUTO 08003KT 10SM 06/02 A3033 RMK AO2 SLP280 T00560017 $
KMRF 110056Z AUTO 17003KT 10SM 08/02 A3033 RMK AO2 SLP275 T00780022 $
KMRF 102356Z AUTO 17006KT 10SM 10/02 A3032 RMK AO2 SLP266 T01000022 10144 20100 55000 $
KMRF 102256Z AUTO 18006KT 10SM 13/02 A3031 RMK AO2 SLP257 T01330017 $
KMRF 102156Z AUTO 17005KT 10SM 14/01 A3030 RMK AO2 SLP254 T01390006 $
KMRF 102056Z AUTO 16006KT 10SM 14/M01 A3032 RMK AO2 SLP257 T01391006 56023 $
KMRF 101956Z AUTO VRB03KT 10SM 13/M02 A3033 RMK AO2 SLP265 T01331017 $
KMRF 101856Z AUTO VRB05KT 10SM 11/M01 A3036 RMK AO2 SLP276 T01111006 $
KMRF 101656Z AUTO 19004KT 10SM 08/04 A3041 RMK AO2 SLP299 T00830039 $
KMRF 101456Z AUTO 34003KT 10SM 01/M01 A3041 RMK AO2 SLP307 T00111006 53012 FZRANO $
KMRF 101356Z AUTO 33005KT 10SM M03/M04 A3039 RMK AO2 SLP302 T10331044 FZRANO $
KMRF 101256Z AUTO 01004KT 10SM M04/M04 A3038 RMK AO2 SLP297 T10391044 FZRANO $
KMRF 101156Z AUTO 33006KT 10SM M04/M05 A3037 RMK AO2 SLP286 T10391050 11011 21039 55002 FZRANO $
KMRF 101056Z AUTO 34004KT 8SM M03/M04 A3036 RMK AO2 SLP275 T10331044 FZRANO $
KMRF 100956Z AUTO 36005KT 8SM M03/M04 A3037 RMK AO2 SLP276 T10331039 FZRANO $
KMRF 100856Z AUTO 00000KT 6SM BR M02/M03 A3037 RMK AO2 SLP277 T10221028 58004 FZRANO $
KMRF 100756Z AUTO 34006KT 6SM BR M03/M03 A3037 RMK AO2 SLP279 T10281033 FZRANO $
KMRF 100656Z AUTO 34007KT 6SM BR M02/M02 A3039 RMK AO2 SLP283 T10171022 401391039 FZRANO $
KMRF 100556Z AUTO 34007KT 5SM BR M02/M02 A3039 RMK AO2 SLP284 T10171022 10089 21017 51004 FZRANO TSNO $
KMRF 100256Z AUTO 03005KT 6SM BR 01/00 A3037 RMK AO2 SLP294 T00110000 51016 FZRANO $